sensor_id;sensor_type;location;lat;lon;timestamp;P1;durP1;ratioP1;P2;durP2;ratioP2
65202;SDS011;51788;45.124;38.966;2022-12-24T00:02:17;97.75;;;47.78;;
65202;SDS011;51788;45.124;38.966;2022-12-24T00:04:44;102.03;;;49.28;;
65202;SDS011;51788;45.124;38.966;2022-12-24T00:07:10;118.25;;;48.78;;
65202;SDS011;51788;45.124;38.966;2022-12-24T00:09:36;99.95;;;47.28;;
65202;SDS011;51788;45.124;38.966;2022-12-24T00:12:02;93.05;;;44.25;;
65202;SDS011;51788;45.124;38.966;2022-12-24T00:14:29;113.38;;;49.00;;
65202;SDS011;51788;45.124;38.966;2022-12-24T00:16:55;104.78;;;49.88;;
65202;SDS011;51788;45.124;38.966;2022-12-24T00:19:21;101.40;;;46.35;;
65202;SDS011;51788;45.124;38.966;2022-12-24T00:21:47;114.75;;;47.33;;
65202;SDS011;51788;45.124;38.966;2022-12-24T00:24:13;88.18;;;43.92;;
65202;SDS011;51788;45.124;38.966;2022-12-24T00:26:39;90.68;;;45.65;;
65202;SDS011;51788;45.124;38.966;2022-12-24T00:29:05;81.28;;;39.55;;
65202;SDS011;51788;45.124;38.966;2022-12-24T00:31:31;84.00;;;39.65;;
65202;SDS011;51788;45.124;38.966;2022-12-24T00:33:57;87.40;;;40.97;;
65202;SDS011;51788;45.124;38.966;2022-12-24T00:36:23;87.22;;;41.50;;
65202;SDS011;51788;45.124;38.966;2022-12-24T00:38:49;87.13;;;45.47;;
65202;SDS011;51788;45.124;38.966;2022-12-24T00:41:15;98.68;;;48.60;;
65202;SDS011;51788;45.124;38.966;2022-12-24T00:43:54;89.57;;;43.70;;
65202;SDS011;51788;45.124;38.966;2022-12-24T00:46:25;88.00;;;41.35;;
65202;SDS011;51788;45.124;38.966;2022-12-24T00:48:52;87.00;;;42.08;;
65202;SDS011;51788;45.124;38.966;2022-12-24T00:51:18;91.32;;;44.72;;
65202;SDS011;51788;45.124;38.966;2022-12-24T00:53:45;88.35;;;41.80;;
65202;SDS011;51788;45.124;38.966;2022-12-24T00:56:11;103.07;;;47.15;;
65202;SDS011;51788;45.124;38.966;2022-12-24T00:58:37;90.90;;;40.88;;
65202;SDS011;51788;45.124;38.966;2022-12-24T01:01:03;89.40;;;45.65;;
65202;SDS011;51788;45.124;38.966;2022-12-24T01:03:29;95.38;;;42.95;;
65202;SDS011;51788;45.124;38.966;2022-12-24T01:08:29;84.57;;;44.55;;
65202;SDS011;51788;45.124;38.966;2022-12-24T01:10:55;94.00;;;41.85;;
65202;SDS011;51788;45.124;38.966;2022-12-24T01:13:21;100.07;;;44.78;;
65202;SDS011;51788;45.124;38.966;2022-12-24T01:15:47;83.80;;;39.42;;
65202;SDS011;51788;45.124;38.966;2022-12-24T01:18:13;101.18;;;43.10;;
65202;SDS011;51788;45.124;38.966;2022-12-24T01:20:39;93.85;;;42.72;;
65202;SDS011;51788;45.124;38.966;2022-12-24T01:23:05;94.53;;;45.33;;
65202;SDS011;51788;45.124;38.966;2022-12-24T01:25:31;82.68;;;40.60;;
65202;SDS011;51788;45.124;38.966;2022-12-24T01:27:57;96.00;;;45.03;;
65202;SDS011;51788;45.124;38.966;2022-12-24T01:30:24;90.65;;;41.90;;
65202;SDS011;51788;45.124;38.966;2022-12-24T01:32:50;92.30;;;42.22;;
65202;SDS011;51788;45.124;38.966;2022-12-24T01:35:16;83.65;;;39.30;;
65202;SDS011;51788;45.124;38.966;2022-12-24T01:37:42;97.45;;;44.80;;
65202;SDS011;51788;45.124;38.966;2022-12-24T01:40:09;96.43;;;44.55;;
65202;SDS011;51788;45.124;38.966;2022-12-24T01:42:58;89.75;;;41.92;;
65202;SDS011;51788;45.124;38.966;2022-12-24T01:45:44;88.03;;;41.80;;
65202;SDS011;51788;45.124;38.966;2022-12-24T01:48:24;87.53;;;42.25;;
65202;SDS011;51788;45.124;38.966;2022-12-24T01:54:10;75.25;;;37.83;;
65202;SDS011;51788;45.124;38.966;2022-12-24T01:56:45;102.68;;;38.95;;
65202;SDS011;51788;45.124;38.966;2022-12-24T01:59:16;83.85;;;37.90;;
65202;SDS011;51788;45.124;38.966;2022-12-24T02:01:45;82.43;;;36.72;;
65202;SDS011;51788;45.124;38.966;2022-12-24T02:04:47;88.00;;;43.63;;
65202;SDS011;51788;45.124;38.966;2022-12-24T02:07:07;84.97;;;40.30;;
65202;SDS011;51788;45.124;38.966;2022-12-24T02:09:33;81.20;;;43.08;;
65202;SDS011;51788;45.124;38.966;2022-12-24T02:12:00;75.75;;;35.03;;
65202;SDS011;51788;45.124;38.966;2022-12-24T02:14:29;63.88;;;34.90;;
65202;SDS011;51788;45.124;38.966;2022-12-24T02:16:59;91.05;;;39.28;;
65202;SDS011;51788;45.124;38.966;2022-12-24T02:20:02;75.63;;;36.83;;
65202;SDS011;51788;45.124;38.966;2022-12-24T02:30:49;60.53;;;30.20;;
65202;SDS011;51788;45.124;38.966;2022-12-24T02:33:34;61.42;;;28.83;;
65202;SDS011;51788;45.124;38.966;2022-12-24T02:36:08;48.35;;;29.88;;
65202;SDS011;51788;45.124;38.966;2022-12-24T02:38:48;62.40;;;30.70;;
65202;SDS011;51788;45.124;38.966;2022-12-24T02:41:41;73.28;;;36.58;;
65202;SDS011;51788;45.124;38.966;2022-12-24T02:47:01;74.13;;;37.03;;
65202;SDS011;51788;45.124;38.966;2022-12-24T02:49:28;85.05;;;38.97;;
65202;SDS011;51788;45.124;38.966;2022-12-24T02:51:54;83.85;;;34.03;;
65202;SDS011;51788;45.124;38.966;2022-12-24T02:54:20;86.38;;;37.05;;
65202;SDS011;51788;45.124;38.966;2022-12-24T02:59:35;84.38;;;35.17;;
65202;SDS011;51788;45.124;38.966;2022-12-24T03:04:56;86.30;;;40.90;;
65202;SDS011;51788;45.124;38.966;2022-12-24T03:10:38;76.40;;;39.20;;
65202;SDS011;51788;45.124;38.966;2022-12-24T03:13:16;64.70;;;35.38;;
65202;SDS011;51788;45.124;38.966;2022-12-24T03:15:44;67.63;;;33.55;;
65202;SDS011;51788;45.124;38.966;2022-12-24T03:18:11;73.13;;;36.00;;
65202;SDS011;51788;45.124;38.966;2022-12-24T03:20:41;57.55;;;30.70;;
65202;SDS011;51788;45.124;38.966;2022-12-24T03:23:10;66.40;;;33.67;;
65202;SDS011;51788;45.124;38.966;2022-12-24T03:25:40;64.55;;;31.17;;
65202;SDS011;51788;45.124;38.966;2022-12-24T03:28:08;58.70;;;29.20;;
65202;SDS011;51788;45.124;38.966;2022-12-24T03:30:38;68.82;;;36.80;;
65202;SDS011;51788;45.124;38.966;2022-12-24T03:33:06;62.85;;;36.03;;
65202;SDS011;51788;45.124;38.966;2022-12-24T03:35:31;89.47;;;40.65;;
65202;SDS011;51788;45.124;38.966;2022-12-24T03:37:57;70.35;;;32.38;;
65202;SDS011;51788;45.124;38.966;2022-12-24T03:40:23;74.80;;;35.58;;
65202;SDS011;51788;45.124;38.966;2022-12-24T03:42:50;77.60;;;34.92;;
65202;SDS011;51788;45.124;38.966;2022-12-24T03:45:16;51.95;;;31.17;;
65202;SDS011;51788;45.124;38.966;2022-12-24T03:47:42;61.30;;;30.70;;
65202;SDS011;51788;45.124;38.966;2022-12-24T03:50:08;80.40;;;37.33;;
65202;SDS011;51788;45.124;38.966;2022-12-24T03:52:34;54.10;;;28.73;;
65202;SDS011;51788;45.124;38.966;2022-12-24T03:55:00;64.65;;;33.10;;
65202;SDS011;51788;45.124;38.966;2022-12-24T03:57:26;46.25;;;25.35;;
65202;SDS011;51788;45.124;38.966;2022-12-24T03:59:52;72.03;;;33.88;;
65202;SDS011;51788;45.124;38.966;2022-12-24T04:02:18;54.30;;;30.80;;
65202;SDS011;51788;45.124;38.966;2022-12-24T04:04:43;59.35;;;29.23;;
65202;SDS011;51788;45.124;38.966;2022-12-24T04:07:09;62.97;;;31.17;;
65202;SDS011;51788;45.124;38.966;2022-12-24T04:09:35;71.28;;;27.88;;
65202;SDS011;51788;45.124;38.966;2022-12-24T04:12:01;50.90;;;24.45;;
65202;SDS011;51788;45.124;38.966;2022-12-24T04:14:27;44.15;;;24.20;;
65202;SDS011;51788;45.124;38.966;2022-12-24T04:16:53;47.70;;;24.20;;
65202;SDS011;51788;45.124;38.966;2022-12-24T04:19:19;52.55;;;27.27;;
65202;SDS011;51788;45.124;38.966;2022-12-24T04:21:45;49.70;;;24.50;;
65202;SDS011;51788;45.124;38.966;2022-12-24T04:24:11;48.28;;;22.48;;
65202;SDS011;51788;45.124;38.966;2022-12-24T04:26:37;30.50;;;19.25;;
65202;SDS011;51788;45.124;38.966;2022-12-24T04:29:03;51.40;;;26.20;;
65202;SDS011;51788;45.124;38.966;2022-12-24T04:31:29;46.85;;;23.48;;
65202;SDS011;51788;45.124;38.966;2022-12-24T04:33:55;40.20;;;21.58;;
65202;SDS011;51788;45.124;38.966;2022-12-24T04:36:21;49.33;;;24.85;;
65202;SDS011;51788;45.124;38.966;2022-12-24T04:38:47;37.85;;;21.63;;
65202;SDS011;51788;45.124;38.966;2022-12-24T04:41:18;38.25;;;20.73;;
65202;SDS011;51788;45.124;38.966;2022-12-24T04:43:45;38.28;;;18.00;;
65202;SDS011;51788;45.124;38.966;2022-12-24T04:46:16;36.55;;;17.40;;
65202;SDS011;51788;45.124;38.966;2022-12-24T04:51:11;33.97;;;19.65;;
65202;SDS011;51788;45.124;38.966;2022-12-24T04:53:39;34.85;;;18.90;;
65202;SDS011;51788;45.124;38.966;2022-12-24T04:56:06;36.92;;;21.63;;
65202;SDS011;51788;45.124;38.966;2022-12-24T04:58:36;39.75;;;20.98;;
65202;SDS011;51788;45.124;38.966;2022-12-24T05:01:11;54.08;;;24.92;;
65202;SDS011;51788;45.124;38.966;2022-12-24T05:03:38;40.55;;;20.90;;
65202;SDS011;51788;45.124;38.966;2022-12-24T05:06:04;43.40;;;22.80;;
65202;SDS011;51788;45.124;38.966;2022-12-24T05:08:35;35.10;;;20.88;;
65202;SDS011;51788;45.124;38.966;2022-12-24T05:11:01;37.58;;;20.13;;
65202;SDS011;51788;45.124;38.966;2022-12-24T05:13:28;46.85;;;22.67;;
65202;SDS011;51788;45.124;38.966;2022-12-24T05:15:54;50.13;;;24.23;;
65202;SDS011;51788;45.124;38.966;2022-12-24T05:18:20;51.95;;;25.83;;
65202;SDS011;51788;45.124;38.966;2022-12-24T05:20:46;85.25;;;29.90;;
65202;SDS011;51788;45.124;38.966;2022-12-24T05:23:16;69.95;;;35.97;;
65202;SDS011;51788;45.124;38.966;2022-12-24T05:26:02;59.72;;;35.92;;
65202;SDS011;51788;45.124;38.966;2022-12-24T05:28:48;53.45;;;31.63;;
65202;SDS011;51788;45.124;38.966;2022-12-24T05:31:15;84.38;;;41.45;;
65202;SDS011;51788;45.124;38.966;2022-12-24T05:33:41;73.53;;;35.70;;
65202;SDS011;51788;45.124;38.966;2022-12-24T05:36:07;71.93;;;38.20;;
65202;SDS011;51788;45.124;38.966;2022-12-24T05:38:33;75.40;;;34.03;;
65202;SDS011;51788;45.124;38.966;2022-12-24T05:41:00;51.67;;;31.30;;
65202;SDS011;51788;45.124;38.966;2022-12-24T05:43:26;56.70;;;31.33;;
65202;SDS011;51788;45.124;38.966;2022-12-24T05:45:56;63.88;;;27.50;;
65202;SDS011;51788;45.124;38.966;2022-12-24T05:48:23;78.55;;;33.80;;
65202;SDS011;51788;45.124;38.966;2022-12-24T05:50:49;55.22;;;27.52;;
65202;SDS011;51788;45.124;38.966;2022-12-24T05:53:15;49.72;;;25.92;;
65202;SDS011;51788;45.124;38.966;2022-12-24T05:55:41;59.60;;;29.90;;
65202;SDS011;51788;45.124;38.966;2022-12-24T05:58:07;52.70;;;25.30;;
65202;SDS011;51788;45.124;38.966;2022-12-24T06:00:33;73.70;;;32.80;;
65202;SDS011;51788;45.124;38.966;2022-12-24T06:02:59;52.63;;;27.45;;
65202;SDS011;51788;45.124;38.966;2022-12-24T06:05:25;94.68;;;34.45;;
65202;SDS011;51788;45.124;38.966;2022-12-24T06:07:51;52.63;;;27.63;;
65202;SDS011;51788;45.124;38.966;2022-12-24T06:10:17;61.75;;;29.63;;
65202;SDS011;51788;45.124;38.966;2022-12-24T06:12:43;55.40;;;30.15;;
65202;SDS011;51788;45.124;38.966;2022-12-24T06:15:10;45.38;;;27.75;;
65202;SDS011;51788;45.124;38.966;2022-12-24T06:17:36;53.33;;;25.10;;
65202;SDS011;51788;45.124;38.966;2022-12-24T06:20:02;63.05;;;28.60;;
65202;SDS011;51788;45.124;38.966;2022-12-24T06:22:29;39.78;;;23.65;;
65202;SDS011;51788;45.124;38.966;2022-12-24T06:24:55;56.05;;;30.88;;
65202;SDS011;51788;45.124;38.966;2022-12-24T06:27:21;58.70;;;29.20;;
65202;SDS011;51788;45.124;38.966;2022-12-24T06:29:47;43.95;;;23.73;;
65202;SDS011;51788;45.124;38.966;2022-12-24T06:32:13;46.15;;;24.90;;
65202;SDS011;51788;45.124;38.966;2022-12-24T06:34:38;49.75;;;25.90;;
65202;SDS011;51788;45.124;38.966;2022-12-24T06:37:04;57.30;;;29.98;;
65202;SDS011;51788;45.124;38.966;2022-12-24T06:39:30;61.33;;;30.00;;
65202;SDS011;51788;45.124;38.966;2022-12-24T06:41:56;56.00;;;28.08;;
65202;SDS011;51788;45.124;38.966;2022-12-24T06:44:22;46.05;;;28.80;;
65202;SDS011;51788;45.124;38.966;2022-12-24T06:46:48;64.57;;;34.65;;
65202;SDS011;51788;45.124;38.966;2022-12-24T06:49:14;83.20;;;40.05;;
65202;SDS011;51788;45.124;38.966;2022-12-24T06:51:40;87.03;;;38.58;;
65202;SDS011;51788;45.124;38.966;2022-12-24T06:54:06;75.93;;;39.70;;
65202;SDS011;51788;45.124;38.966;2022-12-24T06:56:32;69.35;;;35.17;;
65202;SDS011;51788;45.124;38.966;2022-12-24T06:58:58;82.75;;;41.35;;
65202;SDS011;51788;45.124;38.966;2022-12-24T07:01:24;89.22;;;45.05;;
65202;SDS011;51788;45.124;38.966;2022-12-24T07:03:50;85.15;;;45.88;;
65202;SDS011;51788;45.124;38.966;2022-12-24T07:06:18;63.10;;;36.08;;
65202;SDS011;51788;45.124;38.966;2022-12-24T07:08:48;84.00;;;47.83;;
65202;SDS011;51788;45.124;38.966;2022-12-24T07:11:14;80.72;;;38.17;;
65202;SDS011;51788;45.124;38.966;2022-12-24T07:13:40;66.10;;;39.40;;
65202;SDS011;51788;45.124;38.966;2022-12-24T07:16:06;94.15;;;47.53;;
65202;SDS011;51788;45.124;38.966;2022-12-24T07:18:32;95.82;;;47.40;;
65202;SDS011;51788;45.124;38.966;2022-12-24T07:20:58;76.57;;;47.25;;
65202;SDS011;51788;45.124;38.966;2022-12-24T07:23:24;98.88;;;52.42;;
65202;SDS011;51788;45.124;38.966;2022-12-24T07:25:50;79.95;;;46.08;;
65202;SDS011;51788;45.124;38.966;2022-12-24T07:28:16;104.47;;;51.60;;
65202;SDS011;51788;45.124;38.966;2022-12-24T07:30:42;86.05;;;43.25;;
65202;SDS011;51788;45.124;38.966;2022-12-24T07:33:08;89.47;;;46.47;;
65202;SDS011;51788;45.124;38.966;2022-12-24T07:35:34;83.85;;;45.40;;
65202;SDS011;51788;45.124;38.966;2022-12-24T07:38:00;76.72;;;36.13;;
65202;SDS011;51788;45.124;38.966;2022-12-24T07:40:26;72.53;;;37.65;;
65202;SDS011;51788;45.124;38.966;2022-12-24T07:42:52;68.25;;;35.58;;
65202;SDS011;51788;45.124;38.966;2022-12-24T07:45:18;64.40;;;36.58;;
65202;SDS011;51788;45.124;38.966;2022-12-24T07:47:44;81.50;;;39.55;;
65202;SDS011;51788;45.124;38.966;2022-12-24T07:50:10;77.93;;;40.47;;
65202;SDS011;51788;45.124;38.966;2022-12-24T07:52:36;67.72;;;35.90;;
65202;SDS011;51788;45.124;38.966;2022-12-24T07:55:02;45.72;;;27.73;;
65202;SDS011;51788;45.124;38.966;2022-12-24T07:57:28;84.05;;;36.53;;
65202;SDS011;51788;45.124;38.966;2022-12-24T07:59:54;58.75;;;29.52;;
65202;SDS011;51788;45.124;38.966;2022-12-24T08:02:20;56.95;;;32.83;;
65202;SDS011;51788;45.124;38.966;2022-12-24T08:04:46;70.78;;;38.25;;
65202;SDS011;51788;45.124;38.966;2022-12-24T08:07:12;71.07;;;33.83;;
65202;SDS011;51788;45.124;38.966;2022-12-24T08:09:38;67.43;;;35.40;;
65202;SDS011;51788;45.124;38.966;2022-12-24T08:12:04;63.17;;;34.42;;
65202;SDS011;51788;45.124;38.966;2022-12-24T08:14:30;66.70;;;38.22;;
65202;SDS011;51788;45.124;38.966;2022-12-24T08:16:56;57.65;;;32.72;;
65202;SDS011;51788;45.124;38.966;2022-12-24T08:19:22;48.00;;;26.23;;
65202;SDS011;51788;45.124;38.966;2022-12-24T08:21:48;60.67;;;31.13;;
65202;SDS011;51788;45.124;38.966;2022-12-24T08:24:15;52.45;;;30.75;;
65202;SDS011;51788;45.124;38.966;2022-12-24T08:26:41;46.47;;;24.77;;
65202;SDS011;51788;45.124;38.966;2022-12-24T08:29:06;50.22;;;27.48;;
65202;SDS011;51788;45.124;38.966;2022-12-24T08:31:32;53.90;;;28.38;;
65202;SDS011;51788;45.124;38.966;2022-12-24T08:34:02;49.75;;;27.42;;
65202;SDS011;51788;45.124;38.966;2022-12-24T08:36:29;32.50;;;22.58;;
65202;SDS011;51788;45.124;38.966;2022-12-24T08:38:55;49.08;;;24.67;;
65202;SDS011;51788;45.124;38.966;2022-12-24T08:41:21;34.55;;;20.50;;
65202;SDS011;51788;45.124;38.966;2022-12-24T08:43:47;41.90;;;21.08;;
65202;SDS011;51788;45.124;38.966;2022-12-24T08:46:13;44.40;;;22.55;;
65202;SDS011;51788;45.124;38.966;2022-12-24T08:48:39;39.15;;;24.00;;
65202;SDS011;51788;45.124;38.966;2022-12-24T08:51:06;53.90;;;22.70;;
65202;SDS011;51788;45.124;38.966;2022-12-24T08:53:34;45.08;;;22.05;;
65202;SDS011;51788;45.124;38.966;2022-12-24T08:56:03;49.03;;;22.60;;
65202;SDS011;51788;45.124;38.966;2022-12-24T08:58:30;41.40;;;19.92;;
65202;SDS011;51788;45.124;38.966;2022-12-24T09:00:57;35.22;;;20.65;;
65202;SDS011;51788;45.124;38.966;2022-12-24T09:03:23;30.67;;;19.63;;
65202;SDS011;51788;45.124;38.966;2022-12-24T09:05:49;41.92;;;23.67;;
65202;SDS011;51788;45.124;38.966;2022-12-24T09:08:18;39.35;;;21.48;;
65202;SDS011;51788;45.124;38.966;2022-12-24T09:10:44;41.05;;;23.48;;
65202;SDS011;51788;45.124;38.966;2022-12-24T09:13:11;34.00;;;21.95;;
65202;SDS011;51788;45.124;38.966;2022-12-24T09:15:37;38.90;;;20.35;;
65202;SDS011;51788;45.124;38.966;2022-12-24T09:18:03;40.33;;;21.98;;
65202;SDS011;51788;45.124;38.966;2022-12-24T09:20:29;37.35;;;23.17;;
65202;SDS011;51788;45.124;38.966;2022-12-24T09:22:55;41.15;;;20.98;;
65202;SDS011;51788;45.124;38.966;2022-12-24T09:25:21;54.50;;;22.08;;
65202;SDS011;51788;45.124;38.966;2022-12-24T09:27:47;37.95;;;23.52;;
65202;SDS011;51788;45.124;38.966;2022-12-24T09:30:13;58.47;;;27.65;;
65202;SDS011;51788;45.124;38.966;2022-12-24T09:32:39;47.70;;;26.27;;
65202;SDS011;51788;45.124;38.966;2022-12-24T09:35:05;50.08;;;25.95;;
65202;SDS011;51788;45.124;38.966;2022-12-24T09:37:31;56.67;;;31.58;;
65202;SDS011;51788;45.124;38.966;2022-12-24T09:39:57;42.65;;;27.33;;
65202;SDS011;51788;45.124;38.966;2022-12-24T09:44:57;49.83;;;28.70;;
65202;SDS011;51788;45.124;38.966;2022-12-24T09:47:34;49.17;;;26.63;;
65202;SDS011;51788;45.124;38.966;2022-12-24T09:50:08;58.28;;;23.77;;
65202;SDS011;51788;45.124;38.966;2022-12-24T09:53:03;43.08;;;24.63;;
65202;SDS011;51788;45.124;38.966;2022-12-24T09:55:39;66.38;;;29.35;;
65202;SDS011;51788;45.124;38.966;2022-12-24T09:58:21;49.10;;;27.35;;
65202;SDS011;51788;45.124;38.966;2022-12-24T10:00:51;53.03;;;28.23;;
65202;SDS011;51788;45.124;38.966;2022-12-24T10:03:18;44.55;;;24.83;;
65202;SDS011;51788;45.124;38.966;2022-12-24T10:23:10;63.80;;;26.67;;
65202;SDS011;51788;45.124;38.966;2022-12-24T10:25:57;60.70;;;26.60;;
65202;SDS011;51788;45.124;38.966;2022-12-24T10:28:39;57.92;;;30.38;;
65202;SDS011;51788;45.124;38.966;2022-12-24T10:31:09;52.80;;;28.70;;
65202;SDS011;51788;45.124;38.966;2022-12-24T10:33:46;57.42;;;28.33;;
65202;SDS011;51788;45.124;38.966;2022-12-24T10:36:19;47.47;;;26.58;;
65202;SDS011;51788;45.124;38.966;2022-12-24T10:38:49;55.45;;;27.15;;
65202;SDS011;51788;45.124;38.966;2022-12-24T10:41:15;49.40;;;27.42;;
65202;SDS011;51788;45.124;38.966;2022-12-24T10:43:42;52.03;;;27.02;;
65202;SDS011;51788;45.124;38.966;2022-12-24T10:46:17;78.60;;;37.13;;
65202;SDS011;51788;45.124;38.966;2022-12-24T10:48:51;60.67;;;31.10;;
65202;SDS011;51788;45.124;38.966;2022-12-24T10:51:42;114.50;;;52.05;;
65202;SDS011;51788;45.124;38.966;2022-12-24T10:54:17;49.17;;;26.50;;
65202;SDS011;51788;45.124;38.966;2022-12-24T10:56:45;65.57;;;29.65;;
65202;SDS011;51788;45.124;38.966;2022-12-24T11:02:32;56.03;;;25.75;;
65202;SDS011;51788;45.124;38.966;2022-12-24T11:05:00;46.22;;;25.38;;
65202;SDS011;51788;45.124;38.966;2022-12-24T11:07:29;46.60;;;24.75;;
65202;SDS011;51788;45.124;38.966;2022-12-24T11:10:05;49.00;;;25.60;;
65202;SDS011;51788;45.124;38.966;2022-12-24T11:12:38;45.67;;;25.85;;
65202;SDS011;51788;45.124;38.966;2022-12-24T11:15:15;55.13;;;25.92;;
65202;SDS011;51788;45.124;38.966;2022-12-24T11:17:53;19.33;;;13.23;;
65202;SDS011;51788;45.124;38.966;2022-12-24T11:20:28;40.40;;;24.52;;
65202;SDS011;51788;45.124;38.966;2022-12-24T11:22:55;44.42;;;23.52;;
65202;SDS011;51788;45.124;38.966;2022-12-24T11:25:31;46.30;;;23.67;;
65202;SDS011;51788;45.124;38.966;2022-12-24T11:28:10;64.75;;;35.10;;
65202;SDS011;51788;45.124;38.966;2022-12-24T11:30:43;44.78;;;23.40;;
65202;SDS011;51788;45.124;38.966;2022-12-24T11:33:50;43.92;;;24.33;;
65202;SDS011;51788;45.124;38.966;2022-12-24T11:36:22;34.72;;;19.92;;
65202;SDS011;51788;45.124;38.966;2022-12-24T11:38:52;38.35;;;18.67;;
65202;SDS011;51788;45.124;38.966;2022-12-24T11:41:20;43.63;;;21.02;;
65202;SDS011;51788;45.124;38.966;2022-12-24T11:43:47;43.63;;;21.80;;
65202;SDS011;51788;45.124;38.966;2022-12-24T11:46:37;42.83;;;22.83;;
65202;SDS011;51788;45.124;38.966;2022-12-24T11:49:12;45.10;;;21.90;;
65202;SDS011;51788;45.124;38.966;2022-12-24T11:57:49;36.88;;;17.23;;
65202;SDS011;51788;45.124;38.966;2022-12-24T12:00:16;42.00;;;17.75;;
65202;SDS011;51788;45.124;38.966;2022-12-24T12:02:42;29.35;;;16.30;;
65202;SDS011;51788;45.124;38.966;2022-12-24T12:05:14;26.98;;;17.33;;
65202;SDS011;51788;45.124;38.966;2022-12-24T12:07:46;64.10;;;19.92;;
65202;SDS011;51788;45.124;38.966;2022-12-24T12:15:39;37.25;;;20.95;;
65202;SDS011;51788;45.124;38.966;2022-12-24T12:18:17;45.50;;;21.90;;
65202;SDS011;51788;45.124;38.966;2022-12-24T12:20:51;37.30;;;21.02;;
65202;SDS011;51788;45.124;38.966;2022-12-24T12:31:10;52.65;;;23.23;;
65202;SDS011;51788;45.124;38.966;2022-12-24T12:36:07;67.22;;;24.17;;
65202;SDS011;51788;45.124;38.966;2022-12-24T12:38:35;37.83;;;20.92;;
65202;SDS011;51788;45.124;38.966;2022-12-24T12:52:18;51.22;;;24.75;;
65202;SDS011;51788;45.124;38.966;2022-12-24T13:00:09;55.72;;;28.85;;
65202;SDS011;51788;45.124;38.966;2022-12-24T13:11:11;45.78;;;25.70;;
65202;SDS011;51788;45.124;38.966;2022-12-24T13:21:59;57.13;;;25.67;;
65202;SDS011;51788;45.124;38.966;2022-12-24T13:24:26;48.78;;;26.73;;
65202;SDS011;51788;45.124;38.966;2022-12-24T13:33:02;52.10;;;24.80;;
65202;SDS011;51788;45.124;38.966;2022-12-24T13:35:30;53.13;;;25.33;;
65202;SDS011;51788;45.124;38.966;2022-12-24T13:40:51;41.78;;;25.27;;
65202;SDS011;51788;45.124;38.966;2022-12-24T13:43:17;52.15;;;26.15;;
65202;SDS011;51788;45.124;38.966;2022-12-24T13:45:45;50.63;;;25.90;;
65202;SDS011;51788;45.124;38.966;2022-12-24T13:50:48;70.10;;;33.15;;
65202;SDS011;51788;45.124;38.966;2022-12-24T13:53:23;73.57;;;27.80;;
65202;SDS011;51788;45.124;38.966;2022-12-24T13:58:38;65.90;;;27.20;;
65202;SDS011;51788;45.124;38.966;2022-12-24T14:01:10;83.05;;;34.33;;
65202;SDS011;51788;45.124;38.966;2022-12-24T14:03:50;100.45;;;34.67;;
65202;SDS011;51788;45.124;38.966;2022-12-24T14:14:28;112.82;;;43.58;;
65202;SDS011;51788;45.124;38.966;2022-12-24T14:16:56;74.28;;;35.85;;
65202;SDS011;51788;45.124;38.966;2022-12-24T14:19:28;86.82;;;37.45;;
65202;SDS011;51788;45.124;38.966;2022-12-24T14:22:04;73.57;;;38.83;;
65202;SDS011;51788;45.124;38.966;2022-12-24T14:24:47;81.88;;;38.20;;
65202;SDS011;51788;45.124;38.966;2022-12-24T14:27:18;95.32;;;39.92;;
65202;SDS011;51788;45.124;38.966;2022-12-24T14:32:19;78.82;;;33.63;;
65202;SDS011;51788;45.124;38.966;2022-12-24T14:34:45;75.63;;;35.78;;
65202;SDS011;51788;45.124;38.966;2022-12-24T14:37:11;76.38;;;35.88;;
65202;SDS011;51788;45.124;38.966;2022-12-24T14:39:40;80.28;;;39.20;;
65202;SDS011;51788;45.124;38.966;2022-12-24T14:44:55;76.47;;;36.67;;
65202;SDS011;51788;45.124;38.966;2022-12-24T14:47:34;96.22;;;39.55;;
65202;SDS011;51788;45.124;38.966;2022-12-24T14:50:20;76.13;;;34.92;;
65202;SDS011;51788;45.124;38.966;2022-12-24T14:55:42;101.97;;;41.03;;
65202;SDS011;51788;45.124;38.966;2022-12-24T14:58:23;118.60;;;46.60;;
65202;SDS011;51788;45.124;38.966;2022-12-24T15:00:56;76.43;;;41.50;;
65202;SDS011;51788;45.124;38.966;2022-12-24T15:03:28;79.03;;;35.67;;
65202;SDS011;51788;45.124;38.966;2022-12-24T15:06:04;73.07;;;37.55;;
65202;SDS011;51788;45.124;38.966;2022-12-24T15:08:42;96.55;;;39.95;;
65202;SDS011;51788;45.124;38.966;2022-12-24T15:11:13;86.13;;;41.08;;
65202;SDS011;51788;45.124;38.966;2022-12-24T15:13:44;153.38;;;62.38;;
65202;SDS011;51788;45.124;38.966;2022-12-24T15:16:29;155.25;;;65.70;;
65202;SDS011;51788;45.124;38.966;2022-12-24T15:19:02;124.28;;;52.42;;
65202;SDS011;51788;45.124;38.966;2022-12-24T15:24:01;104.75;;;44.90;;
65202;SDS011;51788;45.124;38.966;2022-12-24T15:26:29;89.45;;;43.42;;
65202;SDS011;51788;45.124;38.966;2022-12-24T15:28:59;98.07;;;42.00;;
65202;SDS011;51788;45.124;38.966;2022-12-24T15:31:26;131.77;;;47.65;;
65202;SDS011;51788;45.124;38.966;2022-12-24T15:33:54;126.03;;;54.70;;
65202;SDS011;51788;45.124;38.966;2022-12-24T15:36:39;150.55;;;67.43;;
65202;SDS011;51788;45.124;38.966;2022-12-24T15:39:06;139.25;;;64.47;;
65202;SDS011;51788;45.124;38.966;2022-12-24T15:41:41;172.63;;;82.30;;
65202;SDS011;51788;45.124;38.966;2022-12-24T15:44:34;162.38;;;77.60;;
65202;SDS011;51788;45.124;38.966;2022-12-24T15:47:02;168.88;;;75.65;;
65202;SDS011;51788;45.124;38.966;2022-12-24T15:49:31;191.82;;;82.93;;
65202;SDS011;51788;45.124;38.966;2022-12-24T15:52:03;203.02;;;88.80;;
65202;SDS011;51788;45.124;38.966;2022-12-24T15:54:34;231.00;;;85.38;;
65202;SDS011;51788;45.124;38.966;2022-12-24T15:57:11;187.80;;;85.25;;
65202;SDS011;51788;45.124;38.966;2022-12-24T15:59:59;179.35;;;81.55;;
65202;SDS011;51788;45.124;38.966;2022-12-24T16:10:43;173.95;;;77.13;;
65202;SDS011;51788;45.124;38.966;2022-12-24T16:13:27;166.77;;;77.28;;
65202;SDS011;51788;45.124;38.966;2022-12-24T16:15:56;170.82;;;77.55;;
65202;SDS011;51788;45.124;38.966;2022-12-24T16:21:24;168.07;;;76.43;;
65202;SDS011;51788;45.124;38.966;2022-12-24T16:24:40;205.35;;;83.35;;
65202;SDS011;51788;45.124;38.966;2022-12-24T16:26:55;203.45;;;85.47;;
65202;SDS011;51788;45.124;38.966;2022-12-24T16:29:22;153.82;;;71.35;;
65202;SDS011;51788;45.124;38.966;2022-12-24T16:31:49;149.43;;;74.47;;
65202;SDS011;51788;45.124;38.966;2022-12-24T16:34:17;152.35;;;72.72;;
65202;SDS011;51788;45.124;38.966;2022-12-24T16:36:52;154.68;;;67.93;;
65202;SDS011;51788;45.124;38.966;2022-12-24T16:39:26;138.68;;;69.25;;
65202;SDS011;51788;45.124;38.966;2022-12-24T16:41:56;172.38;;;78.75;;
65202;SDS011;51788;45.124;38.966;2022-12-24T16:44:59;157.55;;;71.78;;
65202;SDS011;51788;45.124;38.966;2022-12-24T16:47:28;151.63;;;69.32;;
65202;SDS011;51788;45.124;38.966;2022-12-24T16:49:57;160.52;;;74.65;;
65202;SDS011;51788;45.124;38.966;2022-12-24T16:52:25;182.43;;;76.68;;